Time;durP1;ratioP1;P1;durP2;ratioP2;P2;SDS_P1;SDS_P2;PMS_P1;PMS_P2;Temp;Humidity;BMP_temperature;BMP_pressure;BME280_temperature;BME280_humidity;BME280_pressure;Samples;Min_cycle;Max_cycle;Signal;HPM_P1;HPM_P2
2022/09/23 00:01:31;;;;;;;44.70;15.30;;;;;;;5.46;69.32;99618.38;106081;1273;22615;-85
2022/09/23 00:04:09;;;;;;;43.70;14.30;;;;;;;5.37;69.37;99618.02;105978;1274;24270;-79
2022/09/23 00:06:41;;;;;;;44.30;14.20;;;;;;;5.32;69.30;99616.11;105956;1273;23947;-82
2022/09/23 00:09:11;;;;;;;38.00;13.90;;;;;;;5.27;69.43;99614.73;106160;1273;23843;-80
2022/09/23 00:11:46;;;;;;;36.60;13.40;;;;;;;5.23;69.31;99614.73;105960;1273;22535;-80
2022/09/23 00:14:16;;;;;;;33.80;12.80;;;;;;;5.19;69.33;99616.86;106301;1274;22547;-86
2022/09/23 00:16:45;;;;;;;36.70;13.60;;;;;;;5.14;69.33;99616.31;105923;1274;23978;-79
2022/09/23 00:19:36;;;;;;;30.80;12.30;;;;;;;5.14;69.52;99615.81;106076;1274;24237;-81
2022/09/23 00:22:17;;;;;;;31.80;12.90;;;;;;;5.25;69.68;99607.77;106101;1274;23906;-84
2022/09/23 00:24:47;;;;;;;30.60;11.50;;;;;;;5.32;69.73;99602.70;106257;1273;22529;-84
2022/09/23 00:27:33;;;;;;;;;;;;;;;;;;;;;
2022/09/23 00:30:05;;;;;;;28.90;11.10;;;;;;;5.23;69.65;99597.45;106132;1274;23027;-79
2022/09/23 00:32:33;;;;;;;27.80;11.30;;;;;;;5.18;69.84;99598.55;105925;1274;22534;-81
2022/09/23 00:35:02;;;;;;;22.70;9.70;;;;;;;5.19;69.58;99596.88;105994;1273;22704;-79
2022/09/23 00:37:31;;;;;;;26.00;10.10;;;;;;;5.22;69.79;99597.46;106049;1273;25338;-78
2022/09/23 00:39:59;;;;;;;27.60;9.60;;;;;;;5.20;69.60;99594.55;106156;1273;25340;-78
2022/09/23 00:42:26;;;;;;;23.30;9.50;;;;;;;5.12;69.62;99595.23;105931;1274;23374;-80
2022/09/23 00:44:58;;;;;;;23.60;8.50;;;;;;;5.06;69.80;99595.11;106000;1274;25558;-79
2022/09/23 00:47:28;;;;;;;21.00;9.20;;;;;;;5.03;69.70;99594.89;106067;1273;22573;-80
2022/09/23 00:50:15;;;;;;;22.50;9.40;;;;;;;4.98;69.83;99593.88;106025;1274;22531;-80
2022/09/23 00:52:43;;;;;;;21.40;8.10;;;;;;;4.97;69.78;99592.34;106030;1274;22545;-81
2022/09/23 00:55:15;;;;;;;18.10;7.20;;;;;;;4.98;69.75;99588.41;105990;1274;22567;-82
2022/09/23 00:57:46;;;;;;;20.50;8.40;;;;;;;4.99;69.87;99588.01;105970;1274;24056;-81
2022/09/23 01:00:16;;;;;;;20.90;8.60;;;;;;;4.95;69.95;99585.72;106272;1273;25316;-79
2022/09/23 01:02:45;;;;;;;20.10;8.40;;;;;;;4.87;70.07;99583.53;105982;1274;22710;-82
2022/09/23 01:05:14;;;;;;;20.30;8.30;;;;;;;4.82;69.95;99583.06;105862;1274;22591;-83
2022/09/23 01:07:44;;;;;;;19.30;7.60;;;;;;;4.78;70.03;99578.80;106103;1273;25675;-77
2022/09/23 01:10:21;;;;;;;19.00;8.20;;;;;;;4.75;70.07;99575.91;105912;1274;24244;-84
2022/09/23 01:13:32;;;;;;;;;;;;;;;;;;;;;
2022/09/23 01:16:44;;;;;;;21.10;7.90;;;;;;;4.75;70.57;99571.69;105996;1274;25241;-79
2022/09/23 01:19:35;;;;;;;19.00;8.80;;;;;;;4.77;70.26;99572.15;106328;1274;24189;-80
2022/09/23 01:22:56;;;;;;;20.10;8.40;;;;;;;4.75;70.25;99568.35;106309;1273;24357;-83
2022/09/23 01:26:02;;;;;;;18.40;8.60;;;;;;;4.79;70.46;99564.12;106307;1273;22553;-83
2022/09/23 01:29:04;;;;;;;21.40;8.50;;;;;;;4.90;70.61;99558.91;106197;1273;25311;-78
2022/09/23 01:31:51;;;;;;;20.90;8.20;;;;;;;4.99;70.87;99556.40;106345;1273;24210;-80
2022/09/23 01:34:35;;;;;;;18.90;7.50;;;;;;;5.07;70.74;99554.47;105981;1274;22655;-82
2022/09/23 01:37:13;;;;;;;18.20;8.20;;;;;;;5.09;70.72;99552.48;106073;1274;24271;-79
2022/09/23 01:39:53;;;;;;;18.00;7.80;;;;;;;4.99;70.33;99552.34;106079;1273;22851;-81
2022/09/23 01:42:32;;;;;;;18.40;8.00;;;;;;;4.88;70.53;99555.98;106120;1273;24198;-82
2022/09/23 01:45:13;;;;;;;19.90;8.50;;;;;;;4.77;70.64;99555.18;105958;1274;22553;-85
2022/09/23 01:48:14;;;;;;;17.00;7.50;;;;;;;4.69;70.64;99556.23;106213;1272;24320;-81
2022/09/23 01:50:55;;;;;;;22.60;8.70;;;;;;;4.66;70.43;99556.19;105974;1274;22554;-80
2022/09/23 01:54:03;;;;;;;17.20;7.80;;;;;;;4.60;70.51;99556.42;106262;1274;23965;-80
2022/09/23 01:56:37;;;;;;;19.80;8.40;;;;;;;4.52;70.54;99553.90;106241;1273;23596;-77
2022/09/23 01:59:44;;;;;;;17.60;7.90;;;;;;;4.54;70.84;99557.73;106293;1273;22541;-84
2022/09/23 02:02:20;;;;;;;16.80;7.50;;;;;;;4.55;70.91;99552.35;106212;1274;24306;-85
2022/09/23 02:05:03;;;;;;;16.10;7.50;;;;;;;4.58;71.08;99553.66;106049;1273;22553;-80
2022/09/23 02:08:12;;;;;;;17.40;7.40;;;;;;;4.65;71.06;99553.22;106068;1273;24287;-79
2022/09/23 02:10:55;;;;;;;14.10;6.90;;;;;;;4.66;70.92;99553.53;105993;1273;24406;-80
2022/09/23 02:14:10;;;;;;;;;;;;;;;;;;;;;
2022/09/23 02:17:07;;;;;;;16.10;5.80;;;;;;;4.52;71.25;99551.28;106324;1273;22578;-86
2022/09/23 02:20:19;;;;;;;16.20;5.50;;;;;;;4.45;71.12;99552.42;106266;1273;25577;-79
2022/09/23 02:23:07;;;;;;;17.00;6.10;;;;;;;4.40;70.93;99549.98;106275;1274;25384;-79
2022/09/23 02:26:16;;;;;;;19.60;6.30;;;;;;;4.41;71.29;99548.20;106101;1273;25357;-78
2022/09/23 02:29:09;;;;;;;20.40;5.80;;;;;;;4.39;71.19;99548.98;106074;1274;24192;-83
2022/09/23 02:31:54;;;;;;;20.00;6.50;;;;;;;4.39;71.31;99547.90;106233;1273;25314;-78
2022/09/23 02:34:46;;;;;;;16.40;6.20;;;;;;;4.45;71.33;99544.31;106059;1274;25417;-80
2022/09/23 02:38:06;;;;;;;15.30;6.10;;;;;;;4.52;71.71;99539.27;106024;1274;25295;-79
2022/09/23 02:40:51;;;;;;;15.80;6.00;;;;;;;4.59;71.36;99539.17;105778;1279;22591;-80
2022/09/23 02:44:09;;;;;;;13.80;6.00;;;;;;;4.60;71.37;99539.50;105741;1280;22784;-85
2022/09/23 02:47:24;;;;;;;;;;;;;;;;;;;;;
2022/09/23 02:51:19;;;;;;;14.40;4.90;;;;;;;4.55;71.35;99539.17;105745;1279;25583;-81
2022/09/23 02:53:32;;;;;;;12.00;5.10;;;;;;;4.59;71.47;99533.17;105528;1281;25360;-79
2022/09/23 02:56:18;;;;;;;13.80;5.30;;;;;;;4.65;71.26;99529.80;105600;1279;24225;-80
2022/09/23 02:59:16;;;;;;;11.90;4.60;;;;;;;4.58;71.28;99531.29;105736;1279;23703;-78
2022/09/23 03:02:16;;;;;;;13.80;4.20;;;;;;;4.46;71.34;99531.23;105784;1279;25313;-78
2022/09/23 03:05:40;;;;;;;10.30;3.90;;;;;;;4.37;71.39;99534.25;105745;1279;22516;-80
2022/09/23 03:08:44;;;;;;;10.90;4.00;;;;;;;4.28;71.65;99534.77;105792;1280;25242;-79
2022/09/23 03:11:39;;;;;;;;;;;;;;;;;;;;;
2022/09/23 03:14:39;;;;;;;12.70;5.10;;;;;;;4.26;71.71;99524.62;105936;1274;24408;-78
2022/09/23 03:17:36;;;;;;;14.10;5.50;;;;;;;4.23;71.56;99531.27;106006;1273;22551;-82
2022/09/23 03:20:34;;;;;;;16.50;5.80;;;;;;;4.20;71.47;99530.14;106195;1273;24190;-83
2022/09/23 03:23:26;;;;;;;19.00;5.90;;;;;;;4.15;71.59;99533.34;106027;1274;26457;-80
2022/09/23 03:26:12;;;;;;;;;;;;;;;;;;;;;
2022/09/23 03:28:42;;;;;;;18.20;6.80;;;;;;;4.09;71.79;99532.73;106011;1274;25662;-83
2022/09/23 03:31:26;;;;;;;18.70;6.40;;;;;;;4.06;71.69;99528.90;105985;1273;22544;-83
2022/09/23 03:34:01;;;;;;;16.00;6.50;;;;;;;4.02;71.77;99531.38;106083;1273;25309;-78
2022/09/23 03:36:52;;;;;;;13.30;6.10;;;;;;;3.98;71.86;99529.90;106052;1274;22557;-79
2022/09/23 03:39:43;;;;;;;16.80;6.70;;;;;;;4.02;71.69;99529.41;106011;1273;22554;-80
2022/09/23 03:42:16;;;;;;;14.40;6.40;;;;;;;4.08;72.17;99524.78;106071;1273;25294;-79
2022/09/23 03:44:57;;;;;;;14.90;6.00;;;;;;;4.13;71.92;99520.20;105971;1273;22563;-80
2022/09/23 03:47:27;;;;;;;13.10;6.40;;;;;;;4.16;71.89;99518.14;105972;1273;24304;-81
2022/09/23 03:49:55;;;;;;;14.40;6.70;;;;;;;4.15;71.95;99518.18;106045;1273;22546;-80
2022/09/23 03:52:33;;;;;;;14.20;6.60;;;;;;;4.10;71.76;99513.42;105965;1274;26084;-79
2022/09/23 03:55:03;;;;;;;14.40;7.20;;;;;;;4.06;72.04;99515.50;106315;1273;25315;-77
2022/09/23 03:57:42;;;;;;;15.40;6.80;;;;;;;4.09;72.20;99510.84;106228;1273;23957;-82
2022/09/23 04:00:10;;;;;;;14.30;7.00;;;;;;;4.14;72.19;99508.38;105968;1274;23053;-79
2022/09/23 04:02:43;;;;;;;17.90;6.80;;;;;;;4.17;72.13;99505.59;105971;1274;25695;-78
2022/09/23 04:05:12;;;;;;;19.60;7.20;;;;;;;4.18;72.10;99506.61;106043;1274;25590;-79
2022/09/23 04:07:45;;;;;;;14.20;6.60;;;;;;;4.14;72.04;99501.30;106091;1273;22557;-80
2022/09/23 04:10:25;;;;;;;15.60;6.50;;;;;;;4.15;72.09;99500.02;105999;1274;25292;-80
2022/09/23 04:12:52;;;;;;;14.30;6.30;;;;;;;4.19;72.15;99497.55;106067;1274;25458;-78
2022/09/23 04:15:25;;;;;;;15.40;6.10;;;;;;;4.27;72.31;99500.58;106045;1274;24319;-83
2022/09/23 04:17:52;;;;;;;16.00;6.40;;;;;;;4.31;72.13;99502.19;105997;1273;25456;-77
2022/09/23 04:20:19;;;;;;;13.70;6.60;;;;;;;4.26;72.12;99502.21;105962;1274;22538;-81
2022/09/23 04:22:49;;;;;;;17.70;6.60;;;;;;;4.19;72.19;99503.40;106021;1274;22548;-82
2022/09/23 04:25:16;;;;;;;17.10;6.50;;;;;;;4.14;71.92;99504.14;106043;1274;22553;-82
2022/09/23 04:27:46;;;;;;;19.50;6.50;;;;;;;4.05;71.82;99502.52;105987;1274;23128;-82
2022/09/23 04:30:17;;;;;;;21.80;6.60;;;;;;;3.95;72.04;99501.66;105948;1274;23821;-81
2022/09/23 04:32:50;;;;;;;23.70;7.00;;;;;;;3.89;71.98;99504.20;105848;1274;22577;-77
2022/09/23 04:35:20;;;;;;;26.90;7.80;;;;;;;3.86;72.03;99506.05;106009;1273;25516;-84
2022/09/23 04:37:52;;;;;;;21.80;6.90;;;;;;;3.84;72.24;99502.64;106010;1273;22567;-81
2022/09/23 04:40:24;;;;;;;23.00;6.60;;;;;;;3.87;72.54;99502.86;106293;1272;24397;-85
2022/09/23 04:43:19;;;;;;;22.50;7.20;;;;;;;3.96;72.47;99505.16;105988;1272;22553;-80
2022/09/23 04:46:08;;;;;;;22.60;7.50;;;;;;;3.93;72.53;99502.45;106370;1274;22579;-83
2022/09/23 04:48:37;;;;;;;21.40;7.30;;;;;;;3.90;72.54;99506.79;106355;1271;25413;-78
2022/09/23 04:51:34;;;;;;;25.50;8.30;;;;;;;3.89;72.33;99507.89;106221;1271;24215;-84
2022/09/23 04:54:04;;;;;;;26.60;7.70;;;;;;;3.86;72.42;99508.70;106037;1273;24243;-79
2022/09/23 04:56:37;;;;;;;18.30;6.80;;;;;;;3.86;72.66;99506.58;106285;1271;24378;-81
2022/09/23 04:59:15;;;;;;;18.50;6.20;;;;;;;3.94;72.70;99506.27;106325;1272;23942;-80
2022/09/23 05:01:45;;;;;;;20.70;6.70;;;;;;;4.09;73.12;99504.66;105979;1274;23906;-80
2022/09/23 05:04:35;;;;;;;20.70;6.80;;;;;;;4.26;72.81;99499.60;106164;1273;24302;-82
2022/09/23 05:07:12;;;;;;;23.70;6.60;;;;;;;4.39;72.59;99500.84;106363;1271;26574;-80
2022/09/23 05:09:46;;;;;;;19.20;6.50;;;;;;;4.49;72.48;99501.67;106340;1272;25234;-79
2022/09/23 05:12:17;;;;;;;21.30;7.10;;;;;;;4.56;72.77;99499.77;106078;1272;25443;-79
2022/09/23 05:14:47;;;;;;;24.80;7.30;;;;;;;4.64;72.71;99504.77;106325;1272;22550;-78
2022/09/23 05:17:17;;;;;;;21.70;7.90;;;;;;;4.66;72.57;99503.13;106260;1271;22531;-81
2022/09/23 05:19:47;;;;;;;19.00;7.30;;;;;;;4.65;72.21;99506.52;106005;1272;25385;-78
2022/09/23 05:22:17;;;;;;;15.70;6.90;;;;;;;4.65;72.54;99507.73;105886;1274;22573;-81
2022/09/23 05:24:46;;;;;;;24.50;6.70;;;;;;;4.71;72.21;99510.84;106204;1271;25676;-81
2022/09/23 05:27:36;;;;;;;19.70;6.00;;;;;;;4.83;72.81;99509.98;105907;1274;25512;-79
2022/09/23 05:30:08;;;;;;;25.20;7.20;;;;;;;5.06;73.04;99506.69;106040;1274;22513;-84
2022/09/23 05:32:35;;;;;;;20.60;7.00;;;;;;;5.23;72.67;99504.06;106058;1274;25404;-79
2022/09/23 05:35:03;;;;;;;23.30;7.70;;;;;;;5.33;73.15;99505.01;105970;1273;24388;-81
2022/09/23 05:38:32;;;;;;;28.00;8.60;;;;;;;5.55;73.33;99505.84;106272;1274;25685;-79
2022/09/23 05:41:09;;;;;;;22.40;7.50;;;;;;;5.81;72.88;99502.54;106291;1273;26483;-83
2022/09/23 05:44:07;;;;;;;32.40;8.60;;;;;;;5.92;72.68;99503.79;106023;1274;22534;-79
2022/09/23 05:46:49;;;;;;;24.20;7.00;;;;;;;6.11;72.71;99499.94;106235;1273;22625;-80
2022/09/23 05:49:36;;;;;;;23.00;7.50;;;;;;;6.35;72.78;99501.81;106109;1273;22618;-78
2022/09/23 05:52:03;;;;;;;21.80;7.10;;;;;;;6.56;73.01;99492.30;106067;1274;22569;-78
2022/09/23 05:54:39;;;;;;;18.20;7.30;;;;;;;6.79;73.10;99489.55;106181;1273;22588;-80
2022/09/23 05:57:09;;;;;;;19.30;7.00;;;;;;;7.01;72.77;99488.09;106347;1273;25367;-79
2022/09/23 06:00:00;;;;;;;24.30;8.50;;;;;;;7.21;72.95;99484.60;106243;1273;22635;-82
2022/09/23 06:02:38;;;;;;;20.40;7.70;;;;;;;7.43;72.79;99488.98;106370;1273;23972;-82
2022/09/23 06:05:05;;;;;;;22.70;6.50;;;;;;;7.63;72.86;99490.00;106236;1273;25297;-79
2022/09/23 06:07:37;;;;;;;22.60;6.60;;;;;;;7.84;72.86;99489.63;106008;1274;22631;-80
2022/09/23 06:10:54;;;;;;;19.50;6.60;;;;;;;8.04;72.88;99484.98;106085;1274;24240;-82
2022/09/23 06:13:25;;;;;;;19.60;6.20;;;;;;;8.27;72.89;99487.06;106299;1274;22582;-84
2022/09/23 06:16:17;;;;;;;16.80;5.90;;;;;;;8.45;72.91;99487.16;106081;1273;25219;-78
2022/09/23 06:19:11;;;;;;;21.10;5.40;;;;;;;8.69;72.98;99480.26;106033;1274;24341;-83
2022/09/23 06:22:22;;;;;;;;;;;;;;;;;;;;;
2022/09/23 06:25:01;;;;;;;19.70;5.60;;;;;;;9.24;73.06;99486.63;106292;1274;22535;-81
2022/09/23 06:27:33;;;;;;;14.20;4.40;;;;;;;9.44;73.04;99480.27;106339;1273;25541;-78
2022/09/23 06:30:33;;;;;;;10.40;3.20;;;;;;;9.59;72.74;99484.11;105959;1276;22638;-80
2022/09/23 06:32:58;;;;;;;9.10;2.80;;;;;;;9.71;72.46;99481.81;106316;1274;25277;-78
2022/09/23 06:35:31;;;;;;;9.90;2.50;;;;;;;9.82;72.24;99479.69;106316;1274;22551;-82
2022/09/23 06:38:01;;;;;;;12.60;2.80;;;;;;;9.93;72.17;99475.64;106330;1274;22542;-81
2022/09/23 06:40:53;;;;;;;13.40;2.90;;;;;;;10.00;72.07;99473.05;106195;1273;23065;-83
2022/09/23 06:43:29;;;;;;;10.80;3.20;;;;;;;10.09;72.04;99476.06;106258;1273;22573;-82
2022/09/23 06:45:59;;;;;;;9.50;3.00;;;;;;;10.18;72.15;99479.18;105972;1273;25283;-84
2022/09/23 06:48:52;;;;;;;13.20;3.10;;;;;;;10.27;72.20;99478.27;106065;1273;24261;-82
2022/09/23 06:51:41;;;;;;;;;;;;;;;;;;;;;
2022/09/23 06:54:33;;;;;;;22.40;4.00;;;;;;;10.49;72.36;99482.73;106203;1273;22655;-78
2022/09/23 06:57:15;;;;;;;17.30;3.90;;;;;;;10.66;72.36;99478.29;106166;1273;25405;-78
2022/09/23 06:59:47;;;;;;;16.40;4.10;;;;;;;10.80;72.19;99479.61;105959;1274;22603;-80
2022/09/23 07:02:24;;;;;;;15.70;4.00;;;;;;;10.95;72.10;99480.44;105999;1273;22577;-84
2022/09/23 07:04:56;;;;;;;10.60;3.30;;;;;;;11.08;71.94;99479.20;106265;1273;22677;-79
2022/09/23 07:07:30;;;;;;;17.50;3.40;;;;;;;11.21;71.90;99480.64;106015;1274;22533;-82
2022/09/23 07:09:59;;;;;;;19.60;4.20;;;;;;;11.35;72.02;99481.48;105962;1274;24395;-82
2022/09/23 07:12:26;;;;;;;16.60;4.20;;;;;;;11.49;72.04;99484.20;105864;1278;22604;-83
2022/09/23 07:14:53;;;;;;;16.80;4.30;;;;;;;11.61;71.70;99485.19;105977;1274;22949;-80
2022/09/23 07:17:21;;;;;;;16.50;4.10;;;;;;;11.74;72.07;99484.83;105947;1276;23478;-78
2022/09/23 07:19:53;;;;;;;13.40;3.30;;;;;;;11.92;72.37;99480.70;106183;1273;22585;-82
2022/09/23 07:22:21;;;;;;;12.60;2.90;;;;;;;12.11;72.13;99475.79;106010;1273;23958;-82
2022/09/23 07:24:48;;;;;;;12.10;3.20;;;;;;;12.25;71.92;99476.73;105942;1274;22548;-84
2022/09/23 07:27:18;;;;;;;12.00;4.40;;;;;;;12.38;71.88;99477.21;105955;1273;22560;-83
2022/09/23 07:29:49;;;;;;;12.20;5.00;;;;;;;12.51;71.82;99474.87;106222;1273;22589;-81
2022/09/23 07:32:21;;;;;;;15.40;5.20;;;;;;;12.63;71.68;99472.36;106263;1274;25349;-79
2022/09/23 07:34:52;;;;;;;11.10;4.10;;;;;;;12.74;71.67;99473.84;105951;1274;24336;-81
2022/09/23 07:37:22;;;;;;;11.80;3.20;;;;;;;12.83;71.55;99475.66;105941;1273;24232;-80
2022/09/23 07:39:50;;;;;;;9.20;2.90;;;;;;;12.91;71.47;99473.11;106044;1274;25365;-78
2022/09/23 07:42:17;;;;;;;7.20;2.30;;;;;;;13.00;71.68;99471.69;106330;1273;25359;-78
2022/09/23 07:44:45;;;;;;;9.30;2.20;;;;;;;13.12;71.63;99469.54;106045;1275;23063;-80
2022/09/23 07:47:38;;;;;;;;;;;;;;;;;;;;;
2022/09/23 07:50:10;;;;;;;6.90;2.20;;;;;;;13.35;71.70;99472.69;106300;1273;22557;-83
2022/09/23 07:52:40;;;;;;;7.20;1.90;;;;;;;13.46;71.51;99468.73;106262;1273;22560;-82
2022/09/23 07:55:09;;;;;;;7.60;2.20;;;;;;;13.53;71.39;99465.54;106032;1274;22549;-83
2022/09/23 07:57:39;;;;;;;6.80;2.00;;;;;;;13.65;71.58;99464.58;106151;1273;25549;-80
2022/09/23 08:00:08;;;;;;;7.60;1.90;;;;;;;13.78;71.22;99462.33;105979;1274;25495;-79
2022/09/23 08:02:51;;;;;;;;;;;;;;;;;;;;;
2022/09/23 08:05:18;;;;;;;5.80;1.70;;;;;;;14.00;71.23;99458.96;106017;1274;26577;-79
2022/09/23 08:07:47;;;;;;;8.20;2.30;;;;;;;14.08;71.12;99460.28;106186;1271;22529;-80
2022/09/23 08:10:17;;;;;;;11.50;2.40;;;;;;;14.19;71.23;99455.63;106016;1271;22695;-84
2022/09/23 08:12:45;;;;;;;8.40;2.30;;;;;;;14.27;71.13;99456.79;106198;1273;23956;-81
2022/09/23 08:15:16;;;;;;;7.20;2.20;;;;;;;14.36;71.20;99455.12;106314;1271;24828;-84
2022/09/23 08:17:43;;;;;;;7.30;2.10;;;;;;;14.46;71.33;99451.48;106335;1272;23697;-79
2022/09/23 08:20:43;;;;;;;8.90;2.60;;;;;;;14.60;71.39;99449.48;106272;1274;22532;-84
2022/09/23 08:23:04;;;;;;;6.10;2.10;;;;;;;14.75;71.08;99444.79;105959;1272;24210;-82
2022/09/23 08:25:34;;;;;;;7.90;2.50;;;;;;;14.78;70.91;99446.52;106015;1272;23324;-80
2022/09/23 08:28:04;;;;;;;6.50;2.10;;;;;;;14.85;70.94;99441.05;106030;1275;23905;-79
2022/09/23 08:30:31;;;;;;;9.10;2.70;;;;;;;14.96;70.95;99441.45;106292;1274;25240;-79
2022/09/23 08:33:00;;;;;;;10.90;2.60;;;;;;;15.06;70.85;99444.73;105994;1274;25650;-84
2022/09/23 08:35:28;;;;;;;8.20;2.80;;;;;;;15.13;70.64;99442.30;106125;1273;24364;-87
2022/09/23 08:38:00;;;;;;;7.50;2.70;;;;;;;15.20;70.65;99439.58;106250;1273;22684;-81
2022/09/23 08:40:34;;;;;;;9.40;2.20;;;;;;;15.29;70.62;99443.95;106007;1274;25349;-79
2022/09/23 08:43:03;;;;;;;7.30;2.10;;;;;;;15.38;70.59;99448.40;106289;1271;24228;-85
2022/09/23 08:45:30;;;;;;;6.90;1.90;;;;;;;15.50;70.59;99448.70;106327;1271;24251;-82
2022/09/23 08:48:08;;;;;;;7.50;2.00;;;;;;;15.57;70.41;99450.36;106120;1272;24284;-81
2022/09/23 08:50:47;;;;;;;7.10;1.80;;;;;;;15.55;69.21;99446.44;106283;1271;22612;-83
2022/09/23 08:53:27;;;;;;;7.60;2.00;;;;;;;15.38;69.68;99443.24;105986;1274;22481;-80
2022/09/23 08:56:03;;;;;;;5.20;1.80;;;;;;;15.48;70.04;99445.77;106299;1274;22731;-81
2022/09/23 08:58:42;;;;;;;6.10;1.70;;;;;;;15.58;69.76;99444.23;106296;1274;22562;-81
2022/09/23 09:01:22;;;;;;;5.20;1.50;;;;;;;15.61;69.62;99440.51;106000;1271;22526;-85
2022/09/23 09:03:57;;;;;;;3.60;1.30;;;;;;;15.68;69.60;99436.04;106349;1271;24394;-85
2022/09/23 09:06:35;;;;;;;4.60;1.20;;;;;;;15.80;69.88;99436.86;106061;1272;24303;-85
2022/09/23 09:09:06;;;;;;;4.70;1.30;;;;;;;15.91;69.61;99437.34;105985;1276;25235;-79
2022/09/23 09:11:37;;;;;;;4.10;1.40;;;;;;;16.06;69.65;99433.59;106351;1274;22541;-79
2022/09/23 09:14:14;;;;;;;5.00;1.40;;;;;;;16.21;69.37;99431.70;106196;1272;25334;-79
2022/09/23 09:17:06;;;;;;;6.20;2.00;;;;;;;16.33;69.36;99431.08;106072;1271;25395;-80
2022/09/23 09:19:54;;;;;;;5.90;2.10;;;;;;;16.49;69.25;99430.23;106021;1271;22551;-86
2022/09/23 09:22:30;;;;;;;5.40;1.40;;;;;;;16.66;69.17;99429.95;106257;1274;23330;-79
2022/09/23 09:25:18;;;;;;;5.60;1.30;;;;;;;16.73;68.64;99436.53;106145;1271;24256;-85
2022/09/23 09:27:46;;;;;;;4.50;1.10;;;;;;;16.78;68.54;99432.42;106074;1276;25273;-80
2022/09/23 09:30:24;;;;;;;4.80;0.80;;;;;;;16.90;68.51;99428.46;106004;1274;22512;-83
2022/09/23 09:33:01;;;;;;;3.30;1.00;;;;;;;17.01;68.37;99424.03;106171;1273;22547;-80
2022/09/23 09:36:09;;;;;;;2.90;0.70;;;;;;;17.12;68.44;99425.02;106376;1271;25247;-79
2022/09/23 09:38:36;;;;;;;3.60;0.90;;;;;;;17.32;68.52;99422.55;105997;1275;22571;-82
2022/09/23 09:41:20;;;;;;;4.20;0.90;;;;;;;17.48;68.25;99423.15;106363;1271;22531;-82
2022/09/23 09:43:55;;;;;;;3.10;0.90;;;;;;;17.53;67.50;99420.12;106119;1274;24399;-84
2022/09/23 09:46:54;;;;;;;3.30;0.90;;;;;;;17.23;66.18;99417.96;106131;1271;180035;-84
2022/09/23 09:49:33;;;;;;;4.60;1.00;;;;;;;16.96;67.01;99416.39;105977;1274;22557;-86
2022/09/23 09:52:25;;;;;;;3.50;1.10;;;;;;;17.09;67.65;99419.52;106221;1274;25238;-80
2022/09/23 09:54:59;;;;;;;10.60;1.40;;;;;;;17.31;67.61;99411.80;106326;1272;25456;-82
2022/09/23 09:57:35;;;;;;;6.60;1.10;;;;;;;17.53;67.44;99409.06;106032;1274;22762;-84
2022/09/23 10:00:21;;;;;;;3.30;1.00;;;;;;;17.69;67.25;99408.63;106392;1271;22629;-85
2022/09/23 10:02:52;;;;;;;4.80;1.20;;;;;;;17.86;67.05;99402.27;106342;1274;22551;-85
2022/09/23 10:05:27;;;;;;;3.50;1.10;;;;;;;17.86;65.64;99401.95;106309;1271;22553;-85
2022/09/23 10:07:57;;;;;;;3.20;1.00;;;;;;;17.44;64.91;99401.38;106253;1272;25708;-79
2022/09/23 10:10:24;;;;;;;3.90;1.00;;;;;;;17.30;66.44;99399.54;106034;1277;22719;-84
2022/09/23 10:13:15;;;;;;;5.50;1.40;;;;;;;17.53;66.78;99395.88;106364;1271;24252;-85
2022/09/23 10:15:48;;;;;;;3.80;1.20;;;;;;;17.84;66.81;99394.70;106151;1272;24262;-87
2022/09/23 10:18:27;;;;;;;3.50;1.00;;;;;;;18.11;66.88;99390.64;105997;1277;24309;-81
2022/09/23 10:21:16;;;;;;;5.70;1.40;;;;;;;18.35;66.54;99385.52;106282;1271;25407;-82
2022/09/23 10:23:53;;;;;;;4.10;1.30;;;;;;;18.58;66.05;99384.75;106330;1274;23188;-86
2022/09/23 10:26:31;;;;;;;4.40;1.10;;;;;;;18.67;66.02;99379.48;106021;1271;24246;-81
2022/09/23 10:29:21;;;;;;;5.40;1.50;;;;;;;18.76;65.52;99375.58;106011;1274;23439;-80
2022/09/23 10:31:57;;;;;;;3.80;1.30;;;;;;;18.82;65.76;99374.36;106296;1274;25228;-79
2022/09/23 10:34:28;;;;;;;3.90;1.10;;;;;;;18.95;65.38;99373.46;106071;1275;22654;-80
2022/09/23 10:37:13;;;;;;;3.90;1.20;;;;;;;18.65;63.06;99369.95;106438;1274;24258;-81
2022/09/23 10:46:45;;;;;;;5.00;1.70;;;;;;;18.26;65.24;99359.60;105727;1281;22623;-85
2022/09/23 10:49:39;;;;;;;4.30;1.40;;;;;;;18.68;65.30;99352.90;105749;1281;22797;-85
2022/09/23 10:52:48;;;;;;;3.80;1.20;;;;;;;18.98;64.92;99348.52;105748;1281;24429;-87
2022/09/23 10:55:32;;;;;;;4.70;1.20;;;;;;;19.18;64.19;99352.05;105754;1282;25489;-79
2022/09/23 10:58:33;;;;;;;7.30;1.30;;;;;;;19.36;64.62;99346.98;105721;1281;26459;-80
2022/09/23 11:01:47;;;;;;;5.40;1.20;;;;;;;19.54;64.32;99343.89;105646;1284;25357;-82
2022/09/23 11:04:36;;;;;;;3.60;1.00;;;;;;;19.42;64.05;99342.25;105949;1281;22573;-81
2022/09/23 11:08:01;;;;;;;4.00;1.10;;;;;;;19.45;64.31;99335.09;105680;1281;24308;-82
2022/09/23 11:11:19;;;;;;;3.60;1.10;;;;;;;19.70;63.97;99332.59;105847;1281;22543;-86
2022/09/23 11:14:05;;;;;;;4.70;1.20;;;;;;;19.90;63.88;99321.48;105801;1281;25242;-80
2022/09/23 11:17:23;;;;;;;;;;;;;;;;;;;;;
2022/09/23 11:20:03;;;;;;;7.10;1.30;;;;;;;20.19;63.50;99319.39;105685;1281;26639;-87
2022/09/23 11:23:23;;;;;;;4.50;1.20;;;;;;;20.11;62.54;99314.52;106101;1274;22539;-80
2022/09/23 11:26:26;;;;;;;3.70;1.00;;;;;;;19.94;63.23;99311.76;106009;1271;23855;-81
2022/09/23 11:29:22;;;;;;;5.10;1.20;;;;;;;19.96;63.07;99308.86;106040;1272;22564;-85
2022/09/23 11:32:07;;;;;;;4.10;1.20;;;;;;;19.94;62.10;99306.02;106235;1272;25226;-80
2022/09/23 11:34:54;;;;;;;5.50;1.10;;;;;;;19.59;62.17;99307.23;106071;1274;22560;-79
2022/09/23 11:37:42;;;;;;;5.70;1.30;;;;;;;19.25;61.04;99303.02;106250;1272;22534;-87
2022/09/23 11:40:33;;;;;;;4.50;1.30;;;;;;;18.89;62.02;99305.45;106244;1271;25372;-80
2022/09/23 11:43:23;;;;;;;4.30;1.20;;;;;;;18.98;62.21;99298.95;106366;1274;25441;-81
2022/09/23 11:46:01;;;;;;;3.00;1.10;;;;;;;19.12;61.99;99293.60;106195;1274;25491;-86
2022/09/23 11:48:44;;;;;;;3.80;1.10;;;;;;;18.88;60.65;99290.12;106243;1272;25229;-85
2022/09/23 11:51:41;;;;;;;3.20;1.30;;;;;;;18.75;61.74;99290.13;106326;1271;25232;-81
2022/09/23 11:54:36;;;;;;;4.50;1.30;;;;;;;18.95;62.11;99285.90;106352;1272;25425;-79
2022/09/23 11:57:08;;;;;;;4.60;1.30;;;;;;;19.23;62.06;99285.67;106306;1271;24239;-85
2022/09/23 11:59:48;;;;;;;4.00;1.30;;;;;;;19.40;61.65;99282.23;106314;1274;25471;-80
2022/09/23 12:02:25;;;;;;;2.60;1.00;;;;;;;19.53;61.93;99278.77;106402;1274;27082;-80
2022/09/23 12:05:09;;;;;;;4.80;1.50;;;;;;;19.55;60.90;99271.33;106203;1272;22539;-85
2022/09/23 12:07:58;;;;;;;5.50;1.20;;;;;;;19.55;61.17;99272.27;105962;1274;25500;-80
2022/09/23 12:10:44;;;;;;;4.60;1.00;;;;;;;19.54;60.91;99276.82;106301;1271;23911;-83
2022/09/23 12:13:26;;;;;;;4.00;1.10;;;;;;;19.34;59.92;99274.86;106376;1274;22688;-82
2022/09/23 12:16:27;;;;;;;3.60;1.20;;;;;;;19.13;60.60;99276.67;106030;1277;22536;-85
2022/09/23 12:19:12;;;;;;;3.60;0.90;;;;;;;18.85;60.31;99272.88;106206;1271;24298;-81
2022/09/23 12:22:15;;;;;;;3.60;1.20;;;;;;;18.89;60.29;99266.67;106239;1274;24064;-81
2022/09/23 12:25:14;;;;;;;4.50;1.20;;;;;;;18.88;60.72;99262.83;106187;1271;25579;-87
2022/09/23 12:27:45;;;;;;;7.00;1.70;;;;;;;19.21;61.15;99259.91;105968;1275;25235;-81
2022/09/23 12:30:25;;;;;;;6.10;1.60;;;;;;;19.43;60.62;99254.14;106226;1274;23974;-85
2022/09/23 12:33:07;;;;;;;6.70;1.50;;;;;;;19.59;60.70;99251.59;106243;1271;25366;-80
2022/09/23 12:35:43;;;;;;;7.80;1.90;;;;;;;19.56;60.14;99242.47;106007;1277;22688;-82
2022/09/23 12:38:19;;;;;;;5.80;1.30;;;;;;;19.43;60.20;99244.25;106268;1271;22837;-80
2022/09/23 12:40:47;;;;;;;7.40;1.70;;;;;;;19.35;59.93;99242.42;106106;1272;22549;-81
2022/09/23 12:43:30;;;;;;;3.80;1.20;;;;;;;19.31;60.26;99240.51;106317;1272;22840;-79
2022/09/23 12:46:20;;;;;;;3.80;1.20;;;;;;;19.42;60.29;99234.63;106047;1271;22544;-86
2022/09/23 12:48:56;;;;;;;3.40;1.20;;;;;;;19.46;59.59;99233.46;106344;1271;22559;-80
2022/09/23 12:51:29;;;;;;;4.00;1.10;;;;;;;19.38;59.64;99233.22;106350;1271;22535;-85
2022/09/23 12:54:02;;;;;;;3.10;1.00;;;;;;;19.35;59.21;99230.77;106354;1271;25621;-86